createdAt,value
2019-05-22T00:01:26.364Z,4.7
2019-05-22T00:11:27.449Z,5.3
2019-05-22T00:21:28.956Z,4.7
2019-05-22T00:31:26.785Z,5.0
2019-05-22T00:41:27.115Z,4.8
2019-05-22T00:51:26.890Z,6.2
2019-05-22T01:01:25.809Z,7.6
2019-05-22T01:11:27.539Z,8.1
2019-05-22T01:21:25.303Z,8.6
2019-05-22T01:31:27.898Z,8.1
2019-05-22T01:41:28.266Z,7.4
2019-05-22T01:51:26.869Z,12.4
2019-05-22T02:01:26.956Z,8.6
2019-05-22T02:11:26.619Z,7.2
2019-05-22T02:21:26.400Z,9.3
2019-05-22T02:31:27.185Z,9.4
2019-05-22T02:41:27.022Z,13.0
2019-05-22T02:51:32.840Z,8.9
2019-05-22T03:01:26.778Z,11.5
2019-05-22T03:11:27.410Z,10.9
2019-05-22T03:21:27.279Z,11.9
2019-05-22T03:31:26.218Z,10.2
2019-05-22T03:41:26.003Z,10.4
2019-05-22T03:51:26.810Z,11.8
2019-05-22T04:01:26.782Z,9.5
2019-05-22T04:11:26.410Z,8.7
2019-05-22T04:21:28.095Z,13.2
2019-05-22T04:31:25.967Z,13.1
2019-05-22T04:41:27.472Z,11.2
2019-05-22T04:51:28.607Z,14.7
2019-05-22T05:01:27.464Z,8.9
2019-05-22T05:11:31.399Z,10.0
2019-05-22T05:21:27.508Z,10.8
2019-05-22T05:31:27.147Z,12.9
2019-05-22T05:41:27.278Z,13.2
2019-05-22T05:51:26.513Z,10.6
2019-05-22T06:01:28.457Z,11.9
2019-05-22T06:11:27.128Z,12.9
2019-05-22T06:21:29.730Z,22.1
2019-05-22T06:31:26.298Z,17.2
2019-05-22T06:41:27.926Z,16.2
2019-05-22T06:51:25.945Z,16.6
2019-05-22T07:01:25.828Z,17.8
2019-05-22T07:11:27.153Z,13.9
2019-05-22T07:21:34.680Z,12.4
2019-05-22T07:31:26.400Z,16.4
2019-05-22T07:41:27.393Z,11.0
2019-05-22T07:51:26.060Z,10.9
2019-05-22T08:01:26.916Z,10.0
2019-05-22T08:11:27.745Z,21.7
2019-05-22T08:21:27.184Z,9.8
2019-05-22T08:31:28.844Z,14.5
2019-05-22T08:41:25.445Z,8.4
2019-05-22T08:51:27.366Z,8.4
2019-05-22T09:01:28.358Z,11.2
2019-05-22T09:11:26.756Z,13.1
2019-05-22T09:21:26.678Z,7.4
2019-05-22T09:31:27.148Z,8.0
2019-05-22T09:41:27.081Z,7.7
2019-05-22T09:51:25.893Z,9.1
2019-05-22T10:01:26.944Z,9.2
2019-05-22T10:11:26.885Z,10.9
2019-05-22T10:21:25.799Z,6.8
2019-05-22T10:31:26.701Z,7.1
2019-05-22T10:41:26.300Z,8.4
2019-05-22T10:51:27.796Z,7.0
2019-05-22T11:01:26.511Z,12.2
2019-05-22T11:11:26.073Z,7.7
2019-05-22T11:21:26.864Z,6.4
2019-05-22T11:31:26.621Z,10.3
2019-05-22T11:41:27.533Z,8.4
2019-05-22T11:51:27.840Z,6.3
2019-05-22T12:01:26.733Z,8.8
2019-05-22T12:11:25.749Z,12.7
2019-05-22T12:21:26.646Z,10.2
2019-05-22T12:31:26.915Z,10.4
2019-05-22T12:41:26.098Z,14.2
2019-05-22T12:51:26.838Z,9.5
2019-05-22T13:01:27.271Z,10.9
2019-05-22T13:11:31.554Z,10.3
2019-05-22T13:21:27.181Z,10.5
2019-05-22T13:31:26.822Z,10.6
2019-05-22T13:41:27.540Z,12.8
2019-05-22T13:51:27.519Z,11.0
2019-05-22T14:01:26.879Z,8.9
2019-05-22T14:11:29.205Z,12.7
2019-05-22T14:21:27.402Z,11.0
2019-05-22T14:31:27.327Z,14.3
2019-05-22T14:41:26.658Z,12.9
2019-05-22T14:51:28.835Z,14.0
2019-05-22T15:01:27.427Z,18.1
2019-05-22T15:11:26.417Z,19.2
2019-05-22T15:21:28.393Z,15.9
2019-05-22T15:31:28.073Z,15.4
2019-05-22T15:41:26.950Z,18.5
2019-05-22T15:51:27.348Z,11.0
2019-05-22T16:01:26.442Z,11.4
2019-05-22T16:11:29.286Z,12.4
2019-05-22T16:21:27.111Z,10.8
2019-05-22T16:31:26.179Z,9.3
2019-05-22T16:41:26.427Z,11.5
2019-05-22T16:51:27.460Z,11.2
2019-05-22T17:01:26.436Z,13.9
2019-05-22T17:11:29.724Z,15.5
2019-05-22T17:21:25.764Z,15.3
2019-05-22T17:31:25.994Z,16.0
2019-05-22T17:41:25.656Z,14.4
2019-05-22T17:51:27.370Z,23.7
2019-05-22T18:01:26.984Z,20.3
2019-05-22T18:11:26.998Z,17.6
2019-05-22T18:21:27.215Z,15.6
2019-05-22T18:31:32.668Z,14.6
2019-05-22T18:41:27.592Z,15.2
2019-05-22T18:51:26.382Z,10.3
2019-05-22T19:01:28.198Z,13.7
2019-05-22T19:11:28.168Z,8.3
2019-05-22T19:21:27.452Z,10.1
2019-05-22T19:31:28.045Z,7.6
2019-05-22T19:41:27.556Z,8.5
2019-05-22T19:51:27.685Z,7.0
2019-05-22T20:01:28.420Z,10.0
2019-05-22T20:11:26.997Z,6.3
2019-05-22T20:21:28.039Z,5.7
2019-05-22T20:31:27.602Z,7.0
2019-05-22T20:41:25.850Z,4.8
2019-05-22T20:51:27.993Z,5.4
2019-05-22T21:01:26.472Z,6.6
2019-05-22T21:11:29.141Z,5.2
2019-05-22T21:21:27.057Z,8.7
2019-05-22T21:31:28.072Z,5.1
2019-05-22T21:41:27.260Z,8.9
2019-05-22T21:51:27.061Z,6.5
2019-05-22T22:01:27.004Z,8.5
2019-05-22T22:11:27.094Z,7.5
2019-05-22T22:21:28.038Z,5.7
2019-05-22T22:31:28.778Z,7.9
2019-05-22T22:41:27.004Z,5.7
2019-05-22T22:51:27.471Z,5.9
2019-05-22T23:01:27.158Z,7.6
2019-05-22T23:11:27.037Z,6.6
2019-05-22T23:21:27.439Z,7.3
2019-05-22T23:31:26.370Z,4.3
2019-05-22T23:41:28.615Z,3.3
2019-05-22T23:51:27.209Z,2.7
